createdAt,value
2022-09-28T00:00:51.750Z,98814.53
2022-09-28T00:03:18.219Z,98820.72
2022-09-28T00:05:44.695Z,98816.28
2022-09-28T00:08:11.157Z,98816.56
2022-09-28T00:10:37.786Z,98811.31
2022-09-28T00:13:04.531Z,98810.53
2022-09-28T00:15:30.984Z,98805.53
2022-09-28T00:17:57.455Z,98806.88
2022-09-28T00:20:23.942Z,98815.38
2022-09-28T00:22:50.406Z,98812.19
2022-09-28T00:25:17.036Z,98815.44
2022-09-28T00:27:43.727Z,98816.81
2022-09-28T00:30:10.485Z,98812.34
2022-09-28T00:32:36.964Z,98809.19
2022-09-28T00:35:03.629Z,98811.13
2022-09-28T00:37:30.117Z,98819.69
2022-09-28T00:39:56.936Z,98816.03
2022-09-28T00:42:26.268Z,98820.25
2022-09-28T00:44:54.567Z,98815.81
2022-09-28T00:47:54.741Z,98818.25
2022-09-28T00:50:30.127Z,98811.16
2022-09-28T00:53:18.435Z,98821.56
2022-09-28T00:56:07.556Z,98819.16
2022-09-28T00:58:39.711Z,98819.81
2022-09-28T01:01:06.386Z,98820.59
2022-09-28T01:03:33.923Z,98826.72
2022-09-28T01:06:03.664Z,98823.31
2022-09-28T01:08:32.825Z,98825.28
2022-09-28T01:10:59.970Z,98820.75
2022-09-28T01:13:27.237Z,98812.25
2022-09-28T01:16:08.035Z,98819.72
2022-09-28T01:19:22.242Z,98804.03
2022-09-28T01:22:19.586Z,98802.44
2022-09-28T01:24:48.683Z,98795.81
2022-09-28T01:27:29.905Z,98802.94
2022-09-28T01:30:08.342Z,98804.50
2022-09-28T01:32:38.322Z,98804.25
2022-09-28T01:35:15.090Z,98805.03
2022-09-28T01:37:44.322Z,98800.81
2022-09-28T01:40:13.377Z,98795.75
2022-09-28T01:42:44.108Z,98796.63
2022-09-28T01:45:23.813Z,98799.84
2022-09-28T01:47:52.113Z,98798.03
2022-09-28T01:50:22.987Z,98802.28
2022-09-28T01:52:56.271Z,98791.94
2022-09-28T01:55:31.255Z,98796.72
2022-09-28T01:58:00.560Z,98797.09
2022-09-28T02:00:28.221Z,98797.59
2022-09-28T02:03:06.130Z,98792.84
2022-09-28T02:05:35.474Z,98792.66
2022-09-28T02:08:28.418Z,98801.19
2022-09-28T02:11:05.950Z,98800.41
2022-09-28T02:14:07.183Z,98785.09
2022-09-28T02:16:48.123Z,98793.28
2022-09-28T02:19:20.762Z,98789.59
2022-09-28T02:22:08.575Z,98778.00
2022-09-28T02:24:45.474Z,98790.22
2022-09-28T02:27:27.558Z,98785.72
2022-09-28T02:29:54.066Z,98778.28
2022-09-28T02:32:20.762Z,98781.22
2022-09-28T02:34:47.337Z,98783.88
2022-09-28T02:37:14.141Z,98794.28
2022-09-28T02:39:40.686Z,98795.31
2022-09-28T02:42:34.479Z,98800.41
2022-09-28T02:45:29.805Z,98801.00
2022-09-28T02:47:56.261Z,98807.94
2022-09-28T02:50:44.041Z,98807.41
2022-09-28T02:53:37.472Z,98805.31
2022-09-28T02:56:41.699Z,98801.38
2022-09-28T02:59:31.329Z,98801.66
2022-09-28T03:02:22.692Z,98789.22
2022-09-28T03:05:04.108Z,98799.34
2022-09-28T03:07:57.614Z,98801.78
2022-09-28T03:10:38.565Z,98785.34
2022-09-28T03:13:06.190Z,98798.53
2022-09-28T03:15:34.714Z,98790.38
2022-09-28T03:18:01.420Z,98801.16
2022-09-28T03:20:29.739Z,98800.63
2022-09-28T03:23:22.898Z,98799.56
2022-09-28T03:25:42.835Z,98812.25
2022-09-28T03:28:09.293Z,98816.78
2022-09-28T03:30:35.883Z,98811.19
2022-09-28T03:33:03.159Z,98814.91
2022-09-28T03:35:29.850Z,98821.28
2022-09-28T03:37:57.192Z,98816.53
2022-09-28T03:40:24.120Z,98816.06
2022-09-28T03:42:50.653Z,98818.41
2022-09-28T03:45:17.137Z,98814.19
2022-09-28T03:47:47.215Z,98822.38
2022-09-28T03:50:13.795Z,98819.19
2022-09-28T03:52:40.393Z,98816.06
2022-09-28T03:55:07.381Z,98818.47
2022-09-28T03:57:33.858Z,98829.88
2022-09-28T04:00:00.619Z,98827.22
2022-09-28T04:02:27.146Z,98826.19
2022-09-28T04:04:53.653Z,98828.06
2022-09-28T04:07:20.127Z,98826.50
2022-09-28T04:09:46.620Z,98828.66
2022-09-28T04:12:13.118Z,98825.22
2022-09-28T04:14:39.594Z,98831.09
2022-09-28T04:17:07.236Z,98839.03
2022-09-28T04:19:33.771Z,98830.84
2022-09-28T04:22:01.703Z,98845.97
2022-09-28T04:24:28.364Z,98838.03
2022-09-28T04:27:14.785Z,98846.00
2022-09-28T04:29:41.771Z,98848.44
2022-09-28T04:32:08.330Z,98850.56
2022-09-28T04:34:37.238Z,98851.91
2022-09-28T04:37:05.303Z,98849.81
2022-09-28T04:39:31.949Z,98847.16
2022-09-28T04:41:58.502Z,98845.06
2022-09-28T04:44:24.958Z,98849.84
2022-09-28T04:46:51.402Z,98846.94
2022-09-28T04:49:17.958Z,98850.19
2022-09-28T04:51:44.564Z,98857.06
2022-09-28T04:54:11.050Z,98857.06
2022-09-28T04:56:37.781Z,98853.09
2022-09-28T04:59:04.337Z,98857.34
2022-09-28T05:01:31.311Z,98853.09
2022-09-28T05:03:57.785Z,98854.91
2022-09-28T05:06:27.997Z,98850.63
2022-09-28T05:08:57.504Z,98849.81
2022-09-28T05:11:24.175Z,98847.63
2022-09-28T05:13:50.943Z,98849.72
2022-09-28T05:16:17.942Z,98844.59
2022-09-28T05:18:44.459Z,98849.34
2022-09-28T05:21:15.791Z,98844.00
2022-09-28T05:23:46.975Z,98840.78
2022-09-28T05:26:14.751Z,98846.34
2022-09-28T05:28:41.383Z,98842.38
2022-09-28T05:31:08.008Z,98845.25
2022-09-28T05:33:34.578Z,98843.19
2022-09-28T05:36:01.980Z,98840.00
2022-09-28T05:38:29.943Z,98840.56
2022-09-28T05:40:56.954Z,98839.28
2022-09-28T05:43:23.808Z,98836.38
2022-09-28T05:45:54.527Z,98844.59
2022-09-28T05:48:22.272Z,98853.41
2022-09-28T05:50:52.617Z,98847.06
2022-09-28T05:53:20.427Z,98847.63
2022-09-28T05:55:47.566Z,98849.47
2022-09-28T05:58:14.399Z,98842.59
2022-09-28T06:00:40.863Z,98842.38
2022-09-28T06:03:10.985Z,98840.25
2022-09-28T06:05:39.404Z,98845.31
2022-09-28T06:08:08.336Z,98850.88
2022-09-28T06:10:35.302Z,98850.06
2022-09-28T06:13:02.211Z,98852.47
2022-09-28T06:15:30.814Z,98846.88
2022-09-28T06:17:59.118Z,98852.41
2022-09-28T06:20:27.463Z,98850.78
2022-09-28T06:22:54.198Z,98861.88
2022-09-28T06:25:22.630Z,98863.16
2022-09-28T06:27:59.394Z,98870.56
2022-09-28T06:30:27.640Z,98860.50
2022-09-28T06:33:00.304Z,98870.34
2022-09-28T06:35:30.271Z,98877.78
2022-09-28T06:37:57.806Z,98873.81
2022-09-28T06:40:25.005Z,98876.47
2022-09-28T06:43:17.182Z,98879.13
2022-09-28T06:45:44.026Z,98878.84
2022-09-28T06:48:11.275Z,98882.31
2022-09-28T06:50:40.405Z,98882.56
2022-09-28T06:53:09.530Z,98888.28
2022-09-28T06:55:39.157Z,98892.19
2022-09-28T06:58:07.966Z,98890.19
2022-09-28T07:00:36.251Z,98883.97
2022-09-28T07:03:04.904Z,98888.69
2022-09-28T07:05:34.937Z,98889.13
2022-09-28T07:08:02.048Z,98892.13
2022-09-28T07:10:29.707Z,98895.41
2022-09-28T07:12:57.689Z,98895.19
2022-09-28T07:15:25.279Z,98898.75
2022-09-28T07:18:03.123Z,98897.19
2022-09-28T07:20:30.858Z,98890.44
2022-09-28T07:23:15.151Z,98896.47
2022-09-28T07:25:50.289Z,98899.41
2022-09-28T07:28:17.401Z,98899.41
2022-09-28T07:30:46.857Z,98905.31
2022-09-28T07:33:15.945Z,98898.78
2022-09-28T07:35:50.708Z,98896.25
2022-09-28T07:38:17.211Z,98898.56
2022-09-28T07:41:02.110Z,98889.03
2022-09-28T07:43:28.642Z,98896.19
2022-09-28T07:45:55.925Z,98905.63
2022-09-28T07:48:22.994Z,98897.13
2022-09-28T07:50:53.509Z,98901.34
2022-09-28T07:53:24.968Z,98895.34
2022-09-28T07:55:53.516Z,98899.88
2022-09-28T07:58:20.699Z,98907.69
2022-09-28T08:00:49.062Z,98902.25
2022-09-28T08:03:22.426Z,98905.69
2022-09-28T08:05:49.804Z,98906.50
2022-09-28T08:08:16.519Z,98916.50
2022-09-28T08:10:47.027Z,98912.53
2022-09-28T08:13:15.353Z,98908.81
2022-09-28T08:15:42.722Z,98908.69
2022-09-28T08:18:10.051Z,98912.63
2022-09-28T08:20:55.211Z,98912.03
2022-09-28T08:23:21.981Z,98910.38
2022-09-28T08:25:52.508Z,98909.41
2022-09-28T08:28:19.009Z,98912.84
2022-09-28T08:30:46.816Z,98912.66
2022-09-28T08:33:14.820Z,98915.00
2022-09-28T08:35:42.062Z,98913.44
2022-09-28T08:38:09.094Z,98927.56
2022-09-28T08:40:52.278Z,98924.78
2022-09-28T08:44:00.087Z,98927.75
2022-09-28T08:46:31.799Z,98925.38
2022-09-28T08:52:11.472Z,98927.09
2022-09-28T08:54:45.211Z,98923.69
2022-09-28T08:57:16.306Z,98933.47
2022-09-28T08:59:55.860Z,98920.34
2022-09-28T09:02:39.786Z,98930.31
2022-09-28T09:05:13.823Z,98925.94
2022-09-28T09:07:43.085Z,98933.47
2022-09-28T09:10:21.433Z,98932.69
2022-09-28T09:13:10.515Z,98927.06
2022-09-28T09:16:01.091Z,98925.38
2022-09-28T09:18:37.568Z,98935.44
2022-09-28T09:21:15.051Z,98927.34
2022-09-28T09:24:21.512Z,98927.59
2022-09-28T09:26:57.343Z,98935.44
2022-09-28T09:29:47.231Z,98924.38
2022-09-28T09:32:21.398Z,98933.28
2022-09-28T09:35:25.301Z,98932.97
2022-09-28T09:38:19.371Z,98924.16
2022-09-28T09:41:16.086Z,98931.50
2022-09-28T09:43:55.896Z,98924.84
2022-09-28T09:46:46.791Z,98926.00
2022-09-28T09:49:21.798Z,98919.06
2022-09-28T09:52:11.564Z,98921.50
2022-09-28T09:54:45.635Z,98914.50
2022-09-28T09:57:20.502Z,98917.06
2022-09-28T09:59:48.562Z,98922.59
2022-09-28T10:02:22.330Z,98922.84
2022-09-28T10:04:52.589Z,98931.84
2022-09-28T10:07:24.414Z,98925.66
2022-09-28T10:09:56.298Z,98923.78
2022-09-28T10:12:24.335Z,98927.56
2022-09-28T10:14:50.923Z,98925.03
2022-09-28T10:17:19.896Z,98912.56
2022-09-28T10:19:46.535Z,98915.53
2022-09-28T10:22:17.978Z,98917.31
2022-09-28T10:24:47.518Z,98917.25
2022-09-28T10:27:20.479Z,98914.31
2022-09-28T10:29:50.073Z,98920.56
2022-09-28T10:32:25.897Z,98910.34
2022-09-28T10:34:54.987Z,98905.34
2022-09-28T10:37:21.565Z,98906.28
2022-09-28T10:39:53.775Z,98905.66
2022-09-28T10:42:28.170Z,98908.34
2022-09-28T10:45:07.337Z,98894.28
2022-09-28T10:47:35.600Z,98889.81
2022-09-28T10:50:02.914Z,98895.00
2022-09-28T10:52:44.927Z,98905.31
2022-09-28T10:55:32.339Z,98894.47
2022-09-28T10:58:00.287Z,98899.13
2022-09-28T11:00:31.580Z,98900.94
2022-09-28T11:02:58.910Z,98905.03
2022-09-28T11:05:27.977Z,98895.50
2022-09-28T11:07:57.005Z,98900.03
2022-09-28T11:10:26.567Z,98892.75
2022-09-28T11:12:54.421Z,98893.38
2022-09-28T11:15:25.695Z,98901.72
2022-09-28T11:17:52.645Z,98903.63
2022-09-28T11:20:27.833Z,98904.91
2022-09-28T11:23:22.141Z,98900.34
2022-09-28T11:26:04.626Z,98888.97
2022-09-28T11:28:37.397Z,98881.28
2022-09-28T11:31:07.274Z,98881.97
2022-09-28T11:33:38.765Z,98902.78
2022-09-28T11:36:12.378Z,98894.06
2022-09-28T11:38:46.080Z,98897.47
2022-09-28T11:41:45.778Z,98896.94
2022-09-28T11:44:15.367Z,98894.38
2022-09-28T11:47:25.345Z,98884.59
2022-09-28T11:50:17.841Z,98882.34
2022-09-28T11:53:15.850Z,98875.38
2022-09-28T11:55:48.395Z,98865.31
2022-09-28T11:58:24.647Z,98874.09
2022-09-28T12:00:57.516Z,98874.06
2022-09-28T12:03:50.696Z,98878.53
2022-09-28T12:06:27.659Z,98876.28
2022-09-28T12:09:06.580Z,98871.06
2022-09-28T12:11:37.829Z,98866.28
2022-09-28T12:14:11.005Z,98872.50
2022-09-28T12:17:04.907Z,98870.84
2022-09-28T12:19:42.524Z,98869.78
2022-09-28T12:22:20.891Z,98865.06
2022-09-28T12:24:51.340Z,98865.31
2022-09-28T12:27:24.911Z,98856.97
2022-09-28T12:29:54.459Z,98852.81
2022-09-28T12:32:26.692Z,98854.84
2022-09-28T12:34:53.231Z,98850.75
2022-09-28T12:37:28.642Z,98852.47
2022-09-28T12:40:30.549Z,98837.69
2022-09-28T12:43:29.088Z,98838.41
2022-09-28T12:46:11.967Z,98827.09
2022-09-28T12:49:27.258Z,98823.31
2022-09-28T12:51:54.521Z,98822.94
2022-09-28T12:54:39.265Z,98831.22
2022-09-28T12:57:25.970Z,98830.50
2022-09-28T12:59:55.363Z,98826.63
2022-09-28T13:02:48.080Z,98831.69
2022-09-28T13:05:32.668Z,98825.81
2022-09-28T13:08:10.041Z,98816.59
2022-09-28T13:10:53.226Z,98814.91
2022-09-28T13:13:22.567Z,98819.09
2022-09-28T13:15:58.200Z,98828.66
2022-09-28T13:18:44.655Z,98822.38
2022-09-28T13:21:14.172Z,98833.97
2022-09-28T13:23:44.005Z,98831.47
2022-09-28T13:26:25.616Z,98826.53
2022-09-28T13:28:54.784Z,98822.44
2022-09-28T13:31:31.858Z,98825.56
2022-09-28T13:34:02.962Z,98831.88
2022-09-28T13:36:30.513Z,98824.69
2022-09-28T13:38:59.429Z,98813.56
2022-09-28T13:41:38.022Z,98811.63
2022-09-28T13:44:13.384Z,98813.22
2022-09-28T13:46:58.591Z,98813.94
2022-09-28T13:49:45.502Z,98823.47
2022-09-28T13:52:27.879Z,98817.25
2022-09-28T13:55:09.783Z,98810.69
2022-09-28T13:57:57.714Z,98810.47
2022-09-28T14:00:32.377Z,98799.22
2022-09-28T14:03:15.076Z,98805.28
2022-09-28T14:05:47.297Z,98798.34
2022-09-28T14:08:34.765Z,98804.56
2022-09-28T14:11:34.366Z,98795.56
2022-09-28T14:14:02.221Z,98794.19
2022-09-28T14:16:33.857Z,98798.56
2022-09-28T14:19:26.592Z,98792.66
2022-09-28T14:22:25.098Z,98776.31
2022-09-28T14:25:03.793Z,98793.25
2022-09-28T14:28:01.464Z,98801.06
2022-09-28T14:30:46.701Z,98802.19
2022-09-28T14:33:19.414Z,98808.94
2022-09-28T14:35:54.081Z,98797.81
2022-09-28T14:38:44.770Z,98792.72
2022-09-28T14:41:18.012Z,98798.50
2022-09-28T14:43:44.471Z,98803.22
2022-09-28T14:46:11.359Z,98810.06
2022-09-28T14:48:48.563Z,98803.44
2022-09-28T14:51:27.142Z,98804.63
2022-09-28T14:53:56.434Z,98793.22
2022-09-28T14:56:23.963Z,98805.41
2022-09-28T14:58:56.125Z,98796.25
2022-09-28T15:01:25.369Z,98817.72
2022-09-28T15:03:56.614Z,98795.34
2022-09-28T15:06:24.077Z,98793.66
2022-09-28T15:08:50.591Z,98799.84
2022-09-28T15:11:22.693Z,98796.31
2022-09-28T15:13:53.314Z,98794.47
2022-09-28T15:16:24.354Z,98787.56
2022-09-28T15:18:56.694Z,98793.19
2022-09-28T15:21:24.306Z,98788.19
2022-09-28T15:23:50.858Z,98792.16
2022-09-28T15:26:27.540Z,98784.88
2022-09-28T15:28:54.978Z,98797.16
2022-09-28T15:31:24.349Z,98797.66
2022-09-28T15:34:09.577Z,98805.44
2022-09-28T15:36:41.508Z,98800.22
2022-09-28T15:39:44.617Z,98799.97
2022-09-28T15:42:11.378Z,98795.28
2022-09-28T15:44:39.514Z,98793.63
2022-09-28T15:47:09.470Z,98800.06
2022-09-28T15:49:53.408Z,98794.31
2022-09-28T15:52:53.826Z,98796.91
2022-09-28T15:55:44.722Z,98794.56
2022-09-28T15:58:20.207Z,98789.34
2022-09-28T16:00:49.594Z,98785.31
2022-09-28T16:03:21.168Z,98788.50
2022-09-28T16:05:59.677Z,98775.69
2022-09-28T16:08:45.881Z,98775.31
2022-09-28T16:11:15.275Z,98776.44
2022-09-28T16:14:06.774Z,98767.06
2022-09-28T16:16:55.270Z,98760.94
2022-09-28T16:19:48.042Z,98761.41
2022-09-28T16:22:25.493Z,98764.00
2022-09-28T16:24:57.135Z,98777.13
2022-09-28T16:27:38.990Z,98773.44
2022-09-28T16:30:20.542Z,98770.44
2022-09-28T16:32:52.994Z,98768.38
2022-09-28T16:35:26.843Z,98769.09
2022-09-28T16:38:14.796Z,98778.47
2022-09-28T16:40:44.261Z,98776.59
2022-09-28T16:43:27.756Z,98770.75
2022-09-28T16:46:12.834Z,98766.44
2022-09-28T16:48:50.665Z,98767.59
2022-09-28T16:51:22.369Z,98771.56
2022-09-28T16:54:07.782Z,98774.94
2022-09-28T16:56:36.217Z,98770.59
2022-09-28T16:59:03.447Z,98767.97
2022-09-28T17:01:31.394Z,98771.56
2022-09-28T17:03:58.006Z,98775.06
2022-09-28T17:06:25.376Z,98773.50
2022-09-28T17:08:52.460Z,98784.03
2022-09-28T17:11:24.739Z,98776.69
2022-09-28T17:13:53.560Z,98779.19
2022-09-28T17:16:37.209Z,98785.47
2022-09-28T17:19:21.468Z,98789.25
2022-09-28T17:21:48.840Z,98791.53
2022-09-28T17:24:15.455Z,98787.50
2022-09-28T17:26:44.429Z,98791.38
2022-09-28T17:29:14.683Z,98784.31
2022-09-28T17:31:45.884Z,98788.13
2022-09-28T17:34:16.153Z,98787.34
2022-09-28T17:36:44.025Z,98795.06
2022-09-28T17:39:12.591Z,98795.47
2022-09-28T17:41:40.254Z,98789.53
2022-09-28T17:44:07.337Z,98791.19
2022-09-28T17:46:36.893Z,98798.28
2022-09-28T17:49:05.757Z,98803.72
2022-09-28T17:51:37.577Z,98801.94
2022-09-28T17:54:06.568Z,98808.88
2022-09-28T17:56:33.654Z,98810.81
2022-09-28T17:59:03.286Z,98810.59
2022-09-28T18:01:34.127Z,98805.81
2022-09-28T18:04:02.801Z,98808.53
2022-09-28T18:06:29.381Z,98801.16
2022-09-28T18:08:55.902Z,98808.50
2022-09-28T18:11:22.669Z,98807.44
2022-09-28T18:13:49.167Z,98805.22
2022-09-28T18:16:16.315Z,98796.31
2022-09-28T18:18:42.877Z,98800.75
2022-09-28T18:21:09.449Z,98798.06
2022-09-28T18:23:39.471Z,98800.28
2022-09-28T18:26:13.862Z,98800.44
2022-09-28T18:28:40.833Z,98794.50
2022-09-28T18:31:12.708Z,98794.06
2022-09-28T18:33:39.351Z,98797.50
2022-09-28T18:36:07.026Z,98796.72
2022-09-28T18:38:37.363Z,98793.91
2022-09-28T18:41:09.227Z,98787.78
2022-09-28T18:43:36.619Z,98788.44
2022-09-28T18:46:10.270Z,98796.13
2022-09-28T18:48:38.448Z,98782.28
2022-09-28T18:51:09.193Z,98789.03
2022-09-28T18:53:36.493Z,98787.78
2022-09-28T18:56:08.118Z,98783.84
2022-09-28T18:58:36.491Z,98781.97
2022-09-28T19:01:29.396Z,98786.53
2022-09-28T19:04:00.204Z,98778.97
2022-09-28T19:06:26.787Z,98785.94
2022-09-28T19:08:55.718Z,98795.03
2022-09-28T19:11:23.058Z,98786.75
2022-09-28T19:13:50.018Z,98796.97
2022-09-28T19:16:21.795Z,98788.16
2022-09-28T19:18:48.885Z,98790.69
2022-09-28T19:21:16.117Z,98787.50
2022-09-28T19:23:49.045Z,98788.31
2022-09-28T19:26:22.149Z,98783.13
2022-09-28T19:28:48.970Z,98790.38
2022-09-28T19:31:15.894Z,98788.31
2022-09-28T19:33:42.485Z,98787.22
2022-09-28T19:36:12.152Z,98774.94
2022-09-28T19:38:39.597Z,98794.31
2022-09-28T19:41:40.781Z,98782.81
2022-09-28T19:44:10.858Z,98769.28
2022-09-28T19:46:39.040Z,98779.06
2022-09-28T19:49:14.354Z,98766.94
2022-09-28T19:52:01.647Z,98760.31
2022-09-28T19:54:36.285Z,98773.06
2022-09-28T19:57:08.861Z,98772.63
2022-09-28T19:59:38.751Z,98774.19
2022-09-28T20:02:07.478Z,98772.94
2022-09-28T20:04:34.408Z,98759.88
2022-09-28T20:07:01.761Z,98762.84
2022-09-28T20:09:28.390Z,98763.50
2022-09-28T20:11:55.073Z,98766.94
2022-09-28T20:14:23.488Z,98765.06
2022-09-28T20:16:52.388Z,98766.00
2022-09-28T20:19:21.513Z,98770.28
2022-09-28T20:21:48.394Z,98777.81
2022-09-28T20:24:17.694Z,98770.13
2022-09-28T20:26:45.814Z,98774.81
2022-09-28T20:29:12.893Z,98770.88
2022-09-28T20:31:39.390Z,98771.94
2022-09-28T20:34:06.831Z,98769.59
2022-09-28T20:36:33.910Z,98764.56
2022-09-28T20:39:01.907Z,98769.09
2022-09-28T20:41:35.767Z,98761.91
2022-09-28T20:44:05.928Z,98756.38
2022-09-28T20:46:34.707Z,98757.16
2022-09-28T20:49:01.713Z,98758.72
2022-09-28T20:51:28.445Z,98752.13
2022-09-28T20:53:56.454Z,98753.38
2022-09-28T20:56:25.044Z,98757.31
2022-09-28T20:58:52.104Z,98754.78
2022-09-28T21:01:23.912Z,98752.59
2022-09-28T21:03:53.020Z,98757.78
2022-09-28T21:06:21.925Z,98747.41
2022-09-28T21:08:49.598Z,98746.94
2022-09-28T21:11:21.382Z,98748.50
2022-09-28T21:13:48.535Z,98749.16
2022-09-28T21:16:17.675Z,98748.66
2022-09-28T21:18:45.109Z,98742.69
2022-09-28T21:21:13.589Z,98736.84
2022-09-28T21:23:40.154Z,98742.97
2022-09-28T21:26:08.994Z,98734.66
2022-09-28T21:28:36.451Z,98741.41
2022-09-28T21:31:06.214Z,98731.66
2022-09-28T21:33:33.003Z,98738.91
2022-09-28T21:36:04.615Z,98742.34
2022-09-28T21:38:31.332Z,98739.53
2022-09-28T21:40:58.987Z,98742.53
2022-09-28T21:43:27.702Z,98738.56
2022-09-28T21:45:55.727Z,98748.94
2022-09-28T21:48:24.467Z,98742.50
2022-09-28T21:51:12.660Z,98746.09
2022-09-28T21:53:39.474Z,98749.25
2022-09-28T21:56:08.098Z,98740.75
2022-09-28T21:58:35.674Z,98742.34
2022-09-28T22:01:16.864Z,98742.81
2022-09-28T22:03:45.217Z,98745.81
2022-09-28T22:06:12.230Z,98740.13
2022-09-28T22:08:39.569Z,98738.25
2022-09-28T22:11:08.919Z,98726.44
2022-09-28T22:13:44.753Z,98736.19
2022-09-28T22:16:12.833Z,98745.03
2022-09-28T22:18:39.892Z,98745.16
2022-09-28T22:21:11.812Z,98736.19
2022-09-28T22:23:38.955Z,98742.31
2022-09-28T22:26:11.632Z,98742.00
2022-09-28T22:28:39.161Z,98743.56
2022-09-28T22:31:06.240Z,98737.72
2022-09-28T22:33:32.845Z,98738.50
2022-09-28T22:35:59.414Z,98737.28
2022-09-28T22:38:25.944Z,98739.50
2022-09-28T22:40:55.037Z,98738.22
2022-09-28T22:43:26.075Z,98736.16
2022-09-28T22:46:07.391Z,98743.41
2022-09-28T22:48:34.771Z,98732.72
2022-09-28T22:51:02.538Z,98731.75
2022-09-28T22:53:29.150Z,98722.47
2022-09-28T22:55:56.662Z,98729.25
2022-09-28T22:58:23.714Z,98727.03
2022-09-28T23:00:50.285Z,98731.59
2022-09-28T23:03:17.918Z,98727.66
2022-09-28T23:05:56.961Z,98738.34
2022-09-28T23:08:24.309Z,98734.41
2022-09-28T23:10:51.193Z,98724.50
2022-09-28T23:13:18.385Z,98725.72
2022-09-28T23:15:58.200Z,98721.66
2022-09-28T23:18:27.061Z,98722.59
2022-09-28T23:20:55.334Z,98726.84
2022-09-28T23:23:22.581Z,98729.69
2022-09-28T23:25:49.545Z,98730.63
2022-09-28T23:28:16.797Z,98727.34
2022-09-28T23:30:43.375Z,98733.28
2022-09-28T23:33:14.356Z,98719.94
2022-09-28T23:35:41.350Z,98720.56
2022-09-28T23:38:11.930Z,98721.19
2022-09-28T23:40:38.535Z,98729.53
2022-09-28T23:43:05.104Z,98722.31
2022-09-28T23:45:31.954Z,98722.47
2022-09-28T23:47:58.434Z,98716.06
2022-09-28T23:50:25.297Z,98716.34
2022-09-28T23:52:51.881Z,98713.22
2022-09-28T23:55:19.132Z,98722.78
2022-09-28T23:57:46.351Z,98718.56
